sensor_id;sensor_type;location;lat;lon;timestamp;temperature;humidity
69770;SHT30;57282;52.514;13.458;2022-09-03T00:02:02;17.00;50.17
69770;SHT30;57282;52.514;13.458;2022-09-03T00:04:44;16.88;50.10
69770;SHT30;57282;52.514;13.458;2022-09-03T00:07:20;16.90;50.40
69770;SHT30;57282;52.514;13.458;2022-09-03T00:10:01;16.87;50.51
69770;SHT30;57282;52.514;13.458;2022-09-03T00:12:37;16.83;50.48
69770;SHT30;57282;52.514;13.458;2022-09-03T00:15:10;16.85;50.69
69770;SHT30;57282;52.514;13.458;2022-09-03T00:17:43;16.80;50.54
69770;SHT30;57282;52.514;13.458;2022-09-03T00:20:16;16.77;50.66
69770;SHT30;57282;52.514;13.458;2022-09-03T00:22:48;16.73;50.76
69770;SHT30;57282;52.514;13.458;2022-09-03T00:25:24;16.74;50.88
69770;SHT30;57282;52.514;13.458;2022-09-03T00:27:56;16.74;51.05
69770;SHT30;57282;52.514;13.458;2022-09-03T00:30:27;16.74;50.96
69770;SHT30;57282;52.514;13.458;2022-09-03T00:32:57;16.67;51.03
69770;SHT30;57282;52.514;13.458;2022-09-03T00:35:33;16.69;50.96
69770;SHT30;57282;52.514;13.458;2022-09-03T00:38:03;16.64;51.23
69770;SHT30;57282;52.514;13.458;2022-09-03T00:40:44;16.62;51.20
69770;SHT30;57282;52.514;13.458;2022-09-03T00:43:32;16.62;51.54
69770;SHT30;57282;52.514;13.458;2022-09-03T00:46:16;16.59;51.51
69770;SHT30;57282;52.514;13.458;2022-09-03T00:49:01;16.52;51.51
69770;SHT30;57282;52.514;13.458;2022-09-03T00:51:48;16.53;51.68
69770;SHT30;57282;52.514;13.458;2022-09-03T00:54:23;16.51;51.89
69770;SHT30;57282;52.514;13.458;2022-09-03T00:57:13;16.49;51.73
69770;SHT30;57282;52.514;13.458;2022-09-03T00:59:55;16.45;52.42
69770;SHT30;57282;52.514;13.458;2022-09-03T01:02:36;16.39;51.89
69770;SHT30;57282;52.514;13.458;2022-09-03T01:05:21;16.42;52.15
69770;SHT30;57282;52.514;13.458;2022-09-03T01:08:13;16.38;52.04
69770;SHT30;57282;52.514;13.458;2022-09-03T01:11:03;16.35;52.19
69770;SHT30;57282;52.514;13.458;2022-09-03T01:13:45;16.32;52.05
69770;SHT30;57282;52.514;13.458;2022-09-03T01:16:27;16.29;52.57
69770;SHT30;57282;52.514;13.458;2022-09-03T01:19:12;16.22;52.16
69770;SHT30;57282;52.514;13.458;2022-09-03T01:22:13;16.26;52.51
69770;SHT30;57282;52.514;13.458;2022-09-03T01:25:16;16.28;52.42
69770;SHT30;57282;52.514;13.458;2022-09-03T01:28:07;16.21;52.36
69770;SHT30;57282;52.514;13.458;2022-09-03T01:30:48;16.16;52.52
69770;SHT30;57282;52.514;13.458;2022-09-03T01:33:27;16.14;52.55
69770;SHT30;57282;52.514;13.458;2022-09-03T01:36:06;16.15;52.56
69770;SHT30;57282;52.514;13.458;2022-09-03T01:38:46;16.09;52.82
69770;SHT30;57282;52.514;13.458;2022-09-03T01:41:24;16.09;52.66
69770;SHT30;57282;52.514;13.458;2022-09-03T01:44:21;16.04;52.76
69770;SHT30;57282;52.514;13.458;2022-09-03T01:47:03;16.04;52.91
69770;SHT30;57282;52.514;13.458;2022-09-03T01:49:39;16.02;53.32
69770;SHT30;57282;52.514;13.458;2022-09-03T01:52:17;16.02;52.88
69770;SHT30;57282;52.514;13.458;2022-09-03T01:55:00;16.00;53.04
69770;SHT30;57282;52.514;13.458;2022-09-03T01:57:47;16.00;53.61
69770;SHT30;57282;52.514;13.458;2022-09-03T02:00:22;16.00;53.45
69770;SHT30;57282;52.514;13.458;2022-09-03T02:02:51;15.95;53.43
69770;SHT30;57282;52.514;13.458;2022-09-03T02:05:20;15.95;53.38
69770;SHT30;57282;52.514;13.458;2022-09-03T02:07:57;15.93;53.32
69770;SHT30;57282;52.514;13.458;2022-09-03T02:10:27;15.88;53.25
69770;SHT30;57282;52.514;13.458;2022-09-03T02:13:01;15.83;53.59
69770;SHT30;57282;52.514;13.458;2022-09-03T02:15:34;15.81;53.78
69770;SHT30;57282;52.514;13.458;2022-09-03T02:18:06;15.77;53.90
69770;SHT30;57282;52.514;13.458;2022-09-03T02:20:38;15.73;53.73
69770;SHT30;57282;52.514;13.458;2022-09-03T02:23:06;15.77;54.20
69770;SHT30;57282;52.514;13.458;2022-09-03T02:25:36;15.74;54.01
69770;SHT30;57282;52.514;13.458;2022-09-03T02:28:06;15.71;54.12
69770;SHT30;57282;52.514;13.458;2022-09-03T02:30:35;15.68;53.67
69770;SHT30;57282;52.514;13.458;2022-09-03T02:33:02;15.60;53.95
69770;SHT30;57282;52.514;13.458;2022-09-03T02:35:43;15.60;54.15
69770;SHT30;57282;52.514;13.458;2022-09-03T02:38:12;15.56;54.26
69770;SHT30;57282;52.514;13.458;2022-09-03T02:40:41;15.53;54.30
69770;SHT30;57282;52.514;13.458;2022-09-03T02:43:12;15.54;54.66
69770;SHT30;57282;52.514;13.458;2022-09-03T02:45:46;15.50;54.51
69770;SHT30;57282;52.514;13.458;2022-09-03T02:48:18;15.53;54.35
69770;SHT30;57282;52.514;13.458;2022-09-03T02:50:47;15.46;54.33
69770;SHT30;57282;52.514;13.458;2022-09-03T02:53:14;15.43;54.66
69770;SHT30;57282;52.514;13.458;2022-09-03T02:55:42;15.40;54.35
69770;SHT30;57282;52.514;13.458;2022-09-03T02:58:08;15.39;54.63
69770;SHT30;57282;52.514;13.458;2022-09-03T03:00:35;15.35;54.54
69770;SHT30;57282;52.514;13.458;2022-09-03T03:03:05;15.30;54.80
69770;SHT30;57282;52.514;13.458;2022-09-03T03:05:41;15.30;54.68
69770;SHT30;57282;52.514;13.458;2022-09-03T03:08:11;15.26;55.11
69770;SHT30;57282;52.514;13.458;2022-09-03T03:10:39;15.26;54.75
69770;SHT30;57282;52.514;13.458;2022-09-03T03:13:07;15.20;54.71
69770;SHT30;57282;52.514;13.458;2022-09-03T03:15:33;15.23;54.82
69770;SHT30;57282;52.514;13.458;2022-09-03T03:18:01;15.20;54.77
69770;SHT30;57282;52.514;13.458;2022-09-03T03:20:29;15.22;54.83
69770;SHT30;57282;52.514;13.458;2022-09-03T03:22:56;15.18;54.68
69770;SHT30;57282;52.514;13.458;2022-09-03T03:25:24;15.12;55.00
69770;SHT30;57282;52.514;13.458;2022-09-03T03:27:53;15.16;55.00
69770;SHT30;57282;52.514;13.458;2022-09-03T03:30:21;15.09;55.14
69770;SHT30;57282;52.514;13.458;2022-09-03T03:32:48;15.06;54.93
69770;SHT30;57282;52.514;13.458;2022-09-03T03:35:15;15.03;54.94
69770;SHT30;57282;52.514;13.458;2022-09-03T03:37:44;15.03;55.18
69770;SHT30;57282;52.514;13.458;2022-09-03T03:40:11;15.03;55.14
69770;SHT30;57282;52.514;13.458;2022-09-03T03:42:39;15.02;55.19
69770;SHT30;57282;52.514;13.458;2022-09-03T03:45:07;15.01;55.38
69770;SHT30;57282;52.514;13.458;2022-09-03T03:47:35;15.01;55.34
69770;SHT30;57282;52.514;13.458;2022-09-03T03:50:03;14.98;55.41
69770;SHT30;57282;52.514;13.458;2022-09-03T03:52:31;14.95;55.63
69770;SHT30;57282;52.514;13.458;2022-09-03T03:55:01;14.96;55.43
69770;SHT30;57282;52.514;13.458;2022-09-03T03:57:29;14.98;55.53
69770;SHT30;57282;52.514;13.458;2022-09-03T03:59:57;15.01;55.53
69770;SHT30;57282;52.514;13.458;2022-09-03T04:02:24;14.99;55.47
69770;SHT30;57282;52.514;13.458;2022-09-03T04:04:52;15.01;55.67
69770;SHT30;57282;52.514;13.458;2022-09-03T04:07:19;14.98;55.54
69770;SHT30;57282;52.514;13.458;2022-09-03T04:09:45;15.01;55.52
69770;SHT30;57282;52.514;13.458;2022-09-03T04:12:14;14.99;55.43
69770;SHT30;57282;52.514;13.458;2022-09-03T04:14:42;14.95;55.53
69770;SHT30;57282;52.514;13.458;2022-09-03T04:17:08;14.93;55.98
69770;SHT30;57282;52.514;13.458;2022-09-03T04:19:35;14.93;55.97
69770;SHT30;57282;52.514;13.458;2022-09-03T04:22:02;14.93;56.14
69770;SHT30;57282;52.514;13.458;2022-09-03T04:24:29;14.89;56.16
69770;SHT30;57282;52.514;13.458;2022-09-03T04:26:56;14.88;56.34
69770;SHT30;57282;52.514;13.458;2022-09-03T04:29:24;14.87;56.59
69770;SHT30;57282;52.514;13.458;2022-09-03T04:31:54;14.84;56.66
69770;SHT30;57282;52.514;13.458;2022-09-03T04:34:38;14.82;56.97
69770;SHT30;57282;52.514;13.458;2022-09-03T04:37:05;14.77;57.08
69770;SHT30;57282;52.514;13.458;2022-09-03T04:39:33;14.75;57.61
69770;SHT30;57282;52.514;13.458;2022-09-03T04:42:00;14.75;57.47
69770;SHT30;57282;52.514;13.458;2022-09-03T04:44:28;14.74;57.78
69770;SHT30;57282;52.514;13.458;2022-09-03T04:46:54;14.75;57.89
69770;SHT30;57282;52.514;13.458;2022-09-03T04:49:22;14.80;57.86
69770;SHT30;57282;52.514;13.458;2022-09-03T04:51:51;14.80;57.96
69770;SHT30;57282;52.514;13.458;2022-09-03T04:54:18;14.78;58.05
69770;SHT30;57282;52.514;13.458;2022-09-03T04:56:45;14.78;58.30
69770;SHT30;57282;52.514;13.458;2022-09-03T04:59:12;14.74;58.59
69770;SHT30;57282;52.514;13.458;2022-09-03T05:01:42;14.80;58.75
69770;SHT30;57282;52.514;13.458;2022-09-03T05:04:09;14.74;58.83
69770;SHT30;57282;52.514;13.458;2022-09-03T05:06:36;14.72;59.23
69770;SHT30;57282;52.514;13.458;2022-09-03T05:09:03;14.72;59.46
69770;SHT30;57282;52.514;13.458;2022-09-03T05:11:30;14.71;59.70
69770;SHT30;57282;52.514;13.458;2022-09-03T05:13:58;14.71;59.67
69770;SHT30;57282;52.514;13.458;2022-09-03T05:16:27;14.63;60.03
69770;SHT30;57282;52.514;13.458;2022-09-03T05:18:58;14.75;59.78
69770;SHT30;57282;52.514;13.458;2022-09-03T05:21:25;14.67;60.27
69770;SHT30;57282;52.514;13.458;2022-09-03T05:23:52;14.61;60.66
69770;SHT30;57282;52.514;13.458;2022-09-03T05:26:21;14.65;60.49
69770;SHT30;57282;52.514;13.458;2022-09-03T05:28:52;14.64;60.80
69770;SHT30;57282;52.514;13.458;2022-09-03T05:31:21;14.65;60.72
69770;SHT30;57282;52.514;13.458;2022-09-03T05:33:51;14.65;60.85
69770;SHT30;57282;52.514;13.458;2022-09-03T05:36:22;14.68;60.88
69770;SHT30;57282;52.514;13.458;2022-09-03T05:38:50;14.65;61.03
69770;SHT30;57282;52.514;13.458;2022-09-03T05:41:18;14.68;61.14
69770;SHT30;57282;52.514;13.458;2022-09-03T05:43:46;14.65;61.11
69770;SHT30;57282;52.514;13.458;2022-09-03T05:46:16;14.61;61.41
69770;SHT30;57282;52.514;13.458;2022-09-03T05:48:43;14.63;61.45
69770;SHT30;57282;52.514;13.458;2022-09-03T05:51:11;14.64;61.63
69770;SHT30;57282;52.514;13.458;2022-09-03T05:53:43;14.68;61.67
69770;SHT30;57282;52.514;13.458;2022-09-03T05:56:13;14.65;61.73
69770;SHT30;57282;52.514;13.458;2022-09-03T05:58:44;14.70;61.69
69770;SHT30;57282;52.514;13.458;2022-09-03T06:01:15;14.67;61.81
69770;SHT30;57282;52.514;13.458;2022-09-03T06:03:44;14.67;62.20
69770;SHT30;57282;52.514;13.458;2022-09-03T06:06:13;14.68;62.00
69770;SHT30;57282;52.514;13.458;2022-09-03T06:08:42;14.74;62.08
69770;SHT30;57282;52.514;13.458;2022-09-03T06:11:10;14.77;62.11
69770;SHT30;57282;52.514;13.458;2022-09-03T06:13:37;14.78;61.91
69770;SHT30;57282;52.514;13.458;2022-09-03T06:16:06;14.84;61.87
69770;SHT30;57282;52.514;13.458;2022-09-03T06:18:33;14.84;62.06
69770;SHT30;57282;52.514;13.458;2022-09-03T06:21:03;14.88;61.76
69770;SHT30;57282;52.514;13.458;2022-09-03T06:23:31;14.96;61.70
69770;SHT30;57282;52.514;13.458;2022-09-03T06:26:03;14.98;61.81
69770;SHT30;57282;52.514;13.458;2022-09-03T06:28:32;15.03;61.53
69770;SHT30;57282;52.514;13.458;2022-09-03T06:31:00;15.08;61.61
69770;SHT30;57282;52.514;13.458;2022-09-03T06:33:28;15.10;61.30
69770;SHT30;57282;52.514;13.458;2022-09-03T06:35:57;15.10;61.51
69770;SHT30;57282;52.514;13.458;2022-09-03T06:38:25;15.18;61.44
69770;SHT30;57282;52.514;13.458;2022-09-03T06:40:53;15.23;61.21
69770;SHT30;57282;52.514;13.458;2022-09-03T06:43:23;15.26;60.96
69770;SHT30;57282;52.514;13.458;2022-09-03T06:45:54;15.26;60.72
69770;SHT30;57282;52.514;13.458;2022-09-03T06:48:22;15.32;60.42
69770;SHT30;57282;52.514;13.458;2022-09-03T06:50:54;15.33;60.68
69770;SHT30;57282;52.514;13.458;2022-09-03T06:53:24;15.36;60.85
69770;SHT30;57282;52.514;13.458;2022-09-03T06:55:53;15.43;60.76
69770;SHT30;57282;52.514;13.458;2022-09-03T06:58:21;15.46;60.22
69770;SHT30;57282;52.514;13.458;2022-09-03T07:01:00;15.46;60.11
69770;SHT30;57282;52.514;13.458;2022-09-03T07:03:28;15.51;60.03
69770;SHT30;57282;52.514;13.458;2022-09-03T07:05:59;15.54;59.81
69770;SHT30;57282;52.514;13.458;2022-09-03T07:08:27;15.63;59.94
69770;SHT30;57282;52.514;13.458;2022-09-03T07:10:54;15.66;60.01
69770;SHT30;57282;52.514;13.458;2022-09-03T07:13:21;15.76;59.61
69770;SHT30;57282;52.514;13.458;2022-09-03T07:15:59;15.81;59.75
69770;SHT30;57282;52.514;13.458;2022-09-03T07:18:26;15.87;59.34
69770;SHT30;57282;52.514;13.458;2022-09-03T07:20:57;15.91;59.55
69770;SHT30;57282;52.514;13.458;2022-09-03T07:23:25;15.94;58.82
69770;SHT30;57282;52.514;13.458;2022-09-03T07:25:54;15.98;58.61
69770;SHT30;57282;52.514;13.458;2022-09-03T07:28:21;16.04;58.90
69770;SHT30;57282;52.514;13.458;2022-09-03T07:30:49;16.09;58.62
69770;SHT30;57282;52.514;13.458;2022-09-03T07:33:17;16.09;58.54
69770;SHT30;57282;52.514;13.458;2022-09-03T07:35:44;16.09;58.34
69770;SHT30;57282;52.514;13.458;2022-09-03T07:38:16;16.11;58.12
69770;SHT30;57282;52.514;13.458;2022-09-03T07:40:44;16.15;58.38
69770;SHT30;57282;52.514;13.458;2022-09-03T07:43:12;16.25;58.11
69770;SHT30;57282;52.514;13.458;2022-09-03T07:45:39;16.29;58.17
69770;SHT30;57282;52.514;13.458;2022-09-03T07:48:06;16.29;57.97
69770;SHT30;57282;52.514;13.458;2022-09-03T07:50:35;16.29;57.77
69770;SHT30;57282;52.514;13.458;2022-09-03T07:53:04;16.36;58.08
69770;SHT30;57282;52.514;13.458;2022-09-03T07:55:32;16.62;60.70
69770;SHT30;57282;52.514;13.458;2022-09-03T07:57:59;16.59;56.76
69770;SHT30;57282;52.514;13.458;2022-09-03T08:00:25;17.14;62.90
69770;SHT30;57282;52.514;13.458;2022-09-03T08:02:52;18.14;59.87
69770;SHT30;57282;52.514;13.458;2022-09-03T08:05:19;18.99;56.21
69770;SHT30;57282;52.514;13.458;2022-09-03T08:07:47;19.64;54.09
69770;SHT30;57282;52.514;13.458;2022-09-03T08:10:14;20.16;51.99
69770;SHT30;57282;52.514;13.458;2022-09-03T08:12:40;20.36;50.74
69770;SHT30;57282;52.514;13.458;2022-09-03T08:15:08;20.39;49.62
69770;SHT30;57282;52.514;13.458;2022-09-03T08:17:35;20.46;48.95
69770;SHT30;57282;52.514;13.458;2022-09-03T08:20:02;20.60;48.58
69770;SHT30;57282;52.514;13.458;2022-09-03T08:22:29;20.76;48.18
69770;SHT30;57282;52.514;13.458;2022-09-03T08:24:58;21.01;47.05
69770;SHT30;57282;52.514;13.458;2022-09-03T08:27:25;20.91;47.14
69770;SHT30;57282;52.514;13.458;2022-09-03T08:29:51;20.79;47.16
69770;SHT30;57282;52.514;13.458;2022-09-03T08:32:18;20.98;47.32
69770;SHT30;57282;52.514;13.458;2022-09-03T08:34:45;21.12;46.87
69770;SHT30;57282;52.514;13.458;2022-09-03T08:37:12;21.27;46.43
69770;SHT30;57282;52.514;13.458;2022-09-03T08:39:40;21.37;46.13
69770;SHT30;57282;52.514;13.458;2022-09-03T08:42:23;21.48;45.89
69770;SHT30;57282;52.514;13.458;2022-09-03T08:44:59;21.41;45.84
69770;SHT30;57282;52.514;13.458;2022-09-03T08:47:32;21.46;45.85
69770;SHT30;57282;52.514;13.458;2022-09-03T08:50:07;21.53;45.52
69770;SHT30;57282;52.514;13.458;2022-09-03T08:52:41;21.63;45.11
69770;SHT30;57282;52.514;13.458;2022-09-03T08:55:17;21.56;45.15
69770;SHT30;57282;52.514;13.458;2022-09-03T08:57:54;21.53;45.51
69770;SHT30;57282;52.514;13.458;2022-09-03T09:00:41;21.58;45.00
69770;SHT30;57282;52.514;13.458;2022-09-03T09:03:32;21.69;45.08
69770;SHT30;57282;52.514;13.458;2022-09-03T09:06:12;21.77;44.84
69770;SHT30;57282;52.514;13.458;2022-09-03T09:08:54;21.79;44.77
69770;SHT30;57282;52.514;13.458;2022-09-03T09:11:39;21.90;44.85
69770;SHT30;57282;52.514;13.458;2022-09-03T09:14:21;21.94;44.66
69770;SHT30;57282;52.514;13.458;2022-09-03T09:16:59;21.96;44.39
69770;SHT30;57282;52.514;13.458;2022-09-03T09:19:40;21.98;44.24
69770;SHT30;57282;52.514;13.458;2022-09-03T09:22:17;21.96;44.19
69770;SHT30;57282;52.514;13.458;2022-09-03T09:24:51;21.97;43.91
69770;SHT30;57282;52.514;13.458;2022-09-03T09:27:20;22.04;43.64
69770;SHT30;57282;52.514;13.458;2022-09-03T09:29:49;21.96;43.68
69770;SHT30;57282;52.514;13.458;2022-09-03T09:32:21;22.04;43.16
69770;SHT30;57282;52.514;13.458;2022-09-03T09:34:51;22.17;42.94
69770;SHT30;57282;52.514;13.458;2022-09-03T09:37:19;22.21;42.90
69770;SHT30;57282;52.514;13.458;2022-09-03T09:39:56;22.07;42.94
69770;SHT30;57282;52.514;13.458;2022-09-03T09:42:27;22.15;42.83
69770;SHT30;57282;52.514;13.458;2022-09-03T09:45:07;22.14;42.44
69770;SHT30;57282;52.514;13.458;2022-09-03T09:47:38;22.13;42.58
69770;SHT30;57282;52.514;13.458;2022-09-03T09:50:16;22.18;42.35
69770;SHT30;57282;52.514;13.458;2022-09-03T09:52:45;22.30;41.87
69770;SHT30;57282;52.514;13.458;2022-09-03T09:55:15;22.24;41.76
69770;SHT30;57282;52.514;13.458;2022-09-03T09:57:44;22.24;41.66
69770;SHT30;57282;52.514;13.458;2022-09-03T10:00:15;22.17;41.58
69770;SHT30;57282;52.514;13.458;2022-09-03T10:02:47;22.28;41.55
69770;SHT30;57282;52.514;13.458;2022-09-03T10:05:21;22.24;41.33
69770;SHT30;57282;52.514;13.458;2022-09-03T10:07:55;22.21;41.36
69770;SHT30;57282;52.514;13.458;2022-09-03T10:10:24;22.24;41.24
69770;SHT30;57282;52.514;13.458;2022-09-03T10:13:03;22.24;41.09
69770;SHT30;57282;52.514;13.458;2022-09-03T10:15:43;22.24;40.98
69770;SHT30;57282;52.514;13.458;2022-09-03T10:18:18;22.28;41.08
69770;SHT30;57282;52.514;13.458;2022-09-03T10:20:57;22.31;41.03
69770;SHT30;57282;52.514;13.458;2022-09-03T10:23:34;22.38;40.61
69770;SHT30;57282;52.514;13.458;2022-09-03T10:26:16;22.30;38.65
69770;SHT30;57282;52.514;13.458;2022-09-03T10:28:50;22.34;40.57
69770;SHT30;57282;52.514;13.458;2022-09-03T10:31:34;22.33;40.38
69770;SHT30;57282;52.514;13.458;2022-09-03T10:34:12;22.37;40.06
69770;SHT30;57282;52.514;13.458;2022-09-03T10:36:50;22.41;39.45
69770;SHT30;57282;52.514;13.458;2022-09-03T10:39:36;22.44;39.51
69770;SHT30;57282;52.514;13.458;2022-09-03T10:42:23;22.47;39.32
69770;SHT30;57282;52.514;13.458;2022-09-03T10:45:09;22.48;39.28
69770;SHT30;57282;52.514;13.458;2022-09-03T10:51:14;22.49;38.86
69770;SHT30;57282;52.514;13.458;2022-09-03T10:54:02;22.49;38.82
69770;SHT30;57282;52.514;13.458;2022-09-03T10:56:48;22.40;38.68
69770;SHT30;57282;52.514;13.458;2022-09-03T10:59:29;22.40;38.47
69770;SHT30;57282;52.514;13.458;2022-09-03T11:02:14;22.35;38.73
69770;SHT30;57282;52.514;13.458;2022-09-03T11:04:58;22.43;38.55
69770;SHT30;57282;52.514;13.458;2022-09-03T11:07:34;22.31;38.78
69770;SHT30;57282;52.514;13.458;2022-09-03T11:10:11;22.35;38.71
69770;SHT30;57282;52.514;13.458;2022-09-03T11:12:45;22.34;38.25
69770;SHT30;57282;52.514;13.458;2022-09-03T11:15:19;22.40;38.64
69770;SHT30;57282;52.514;13.458;2022-09-03T11:17:54;22.37;38.40
69770;SHT30;57282;52.514;13.458;2022-09-03T11:20:28;22.41;38.73
69770;SHT30;57282;52.514;13.458;2022-09-03T11:22:59;22.44;38.46
69770;SHT30;57282;52.514;13.458;2022-09-03T11:25:30;22.48;38.62
69770;SHT30;57282;52.514;13.458;2022-09-03T11:28:09;22.55;38.38
69770;SHT30;57282;52.514;13.458;2022-09-03T11:30:51;22.65;38.36
69770;SHT30;57282;52.514;13.458;2022-09-03T11:33:32;22.69;38.12
69770;SHT30;57282;52.514;13.458;2022-09-03T11:36:06;22.61;38.12
69770;SHT30;57282;52.514;13.458;2022-09-03T11:38:34;22.75;38.11
69770;SHT30;57282;52.514;13.458;2022-09-03T11:41:11;22.79;37.96
69770;SHT30;57282;52.514;13.458;2022-09-03T11:43:40;22.75;37.50
69770;SHT30;57282;52.514;13.458;2022-09-03T11:46:10;22.66;38.10
69770;SHT30;57282;52.514;13.458;2022-09-03T11:48:53;22.62;37.99
69770;SHT30;57282;52.514;13.458;2022-09-03T11:51:31;22.62;37.95
69770;SHT30;57282;52.514;13.458;2022-09-03T11:54:03;22.65;37.69
69770;SHT30;57282;52.514;13.458;2022-09-03T11:56:32;22.69;37.83
69770;SHT30;57282;52.514;13.458;2022-09-03T11:59:16;22.71;37.75
69770;SHT30;57282;52.514;13.458;2022-09-03T12:01:48;22.76;37.77
69770;SHT30;57282;52.514;13.458;2022-09-03T12:04:21;22.86;37.35
69770;SHT30;57282;52.514;13.458;2022-09-03T12:07:11;22.69;37.63
69770;SHT30;57282;52.514;13.458;2022-09-03T12:10:16;22.65;35.73
69770;SHT30;57282;52.514;13.458;2022-09-03T12:13:02;22.69;37.35
69770;SHT30;57282;52.514;13.458;2022-09-03T12:15:59;22.66;37.15
69770;SHT30;57282;52.514;13.458;2022-09-03T12:18:39;22.76;36.92
69770;SHT30;57282;52.514;13.458;2022-09-03T12:21:09;22.81;36.80
69770;SHT30;57282;52.514;13.458;2022-09-03T12:23:42;22.85;36.81
69770;SHT30;57282;52.514;13.458;2022-09-03T12:26:12;22.86;36.35
69770;SHT30;57282;52.514;13.458;2022-09-03T12:28:42;22.85;36.10
69770;SHT30;57282;52.514;13.458;2022-09-03T12:31:15;22.77;36.25
69770;SHT30;57282;52.514;13.458;2022-09-03T12:33:49;22.82;36.59
69770;SHT30;57282;52.514;13.458;2022-09-03T12:36:18;22.85;36.32
69770;SHT30;57282;52.514;13.458;2022-09-03T12:38:48;22.85;36.21
69770;SHT30;57282;52.514;13.458;2022-09-03T12:41:22;22.89;36.39
69770;SHT30;57282;52.514;13.458;2022-09-03T12:43:53;22.88;36.09
69770;SHT30;57282;52.514;13.458;2022-09-03T12:46:22;22.96;35.83
69770;SHT30;57282;52.514;13.458;2022-09-03T12:48:55;22.89;35.46
69770;SHT30;57282;52.514;13.458;2022-09-03T12:51:30;22.79;34.39
69770;SHT30;57282;52.514;13.458;2022-09-03T12:54:01;22.82;35.66
69770;SHT30;57282;52.514;13.458;2022-09-03T12:56:30;22.81;35.95
69770;SHT30;57282;52.514;13.458;2022-09-03T12:59:04;22.77;36.03
69770;SHT30;57282;52.514;13.458;2022-09-03T13:01:42;22.83;36.32
69770;SHT30;57282;52.514;13.458;2022-09-03T13:04:17;22.76;35.09
69770;SHT30;57282;52.514;13.458;2022-09-03T13:06:52;22.71;35.46
69770;SHT30;57282;52.514;13.458;2022-09-03T13:09:27;22.65;35.84
69770;SHT30;57282;52.514;13.458;2022-09-03T13:11:56;22.68;35.08
69770;SHT30;57282;52.514;13.458;2022-09-03T13:14:24;22.73;35.89
69770;SHT30;57282;52.514;13.458;2022-09-03T13:17:04;22.81;35.66
69770;SHT30;57282;52.514;13.458;2022-09-03T13:19:50;22.82;35.67
69770;SHT30;57282;52.514;13.458;2022-09-03T13:22:38;22.73;34.69
69770;SHT30;57282;52.514;13.458;2022-09-03T13:25:19;22.58;34.46
69770;SHT30;57282;52.514;13.458;2022-09-03T13:27:59;22.43;34.31
69770;SHT30;57282;52.514;13.458;2022-09-03T13:30:41;22.37;35.16
69770;SHT30;57282;52.514;13.458;2022-09-03T13:33:21;22.35;35.39
69770;SHT30;57282;52.514;13.458;2022-09-03T13:35:59;22.31;34.94
69770;SHT30;57282;52.514;13.458;2022-09-03T13:38:33;22.28;34.80
69770;SHT30;57282;52.514;13.458;2022-09-03T13:41:11;22.33;35.07
69770;SHT30;57282;52.514;13.458;2022-09-03T13:43:48;22.34;35.08
69770;SHT30;57282;52.514;13.458;2022-09-03T13:46:22;22.43;34.64
69770;SHT30;57282;52.514;13.458;2022-09-03T13:48:58;22.34;34.88
69770;SHT30;57282;52.514;13.458;2022-09-03T13:51:55;22.28;34.96
69770;SHT30;57282;52.514;13.458;2022-09-03T13:54:28;22.31;35.13
69770;SHT30;57282;52.514;13.458;2022-09-03T13:57:04;22.31;34.78
69770;SHT30;57282;52.514;13.458;2022-09-03T13:59:51;22.30;35.06
69770;SHT30;57282;52.514;13.458;2022-09-03T14:02:43;22.28;34.38
69770;SHT30;57282;52.514;13.458;2022-09-03T14:05:24;22.33;35.03
69770;SHT30;57282;52.514;13.458;2022-09-03T14:08:04;22.40;34.97
69770;SHT30;57282;52.514;13.458;2022-09-03T14:10:51;22.35;34.24
69770;SHT30;57282;52.514;13.458;2022-09-03T14:13:36;22.33;34.45
69770;SHT30;57282;52.514;13.458;2022-09-03T14:16:19;22.37;34.32
69770;SHT30;57282;52.514;13.458;2022-09-03T14:18:58;22.37;34.59
69770;SHT30;57282;52.514;13.458;2022-09-03T14:21:33;22.40;34.59
69770;SHT30;57282;52.514;13.458;2022-09-03T14:24:13;22.37;34.80
69770;SHT30;57282;52.514;13.458;2022-09-03T14:26:49;22.33;34.97
69770;SHT30;57282;52.514;13.458;2022-09-03T14:29:23;22.28;34.82
69770;SHT30;57282;52.514;13.458;2022-09-03T14:32:10;22.21;35.02
69770;SHT30;57282;52.514;13.458;2022-09-03T14:35:14;22.14;35.08
69770;SHT30;57282;52.514;13.458;2022-09-03T14:38:11;22.14;35.40
69770;SHT30;57282;52.514;13.458;2022-09-03T14:41:04;22.14;35.37
69770;SHT30;57282;52.514;13.458;2022-09-03T14:44:05;22.20;34.97
69770;SHT30;57282;52.514;13.458;2022-09-03T14:46:59;22.21;35.30
69770;SHT30;57282;52.514;13.458;2022-09-03T14:49:50;22.21;34.88
69770;SHT30;57282;52.514;13.458;2022-09-03T14:52:40;22.17;35.23
69770;SHT30;57282;52.514;13.458;2022-09-03T14:58:44;22.14;35.32
69770;SHT30;57282;52.514;13.458;2022-09-03T15:01:27;22.06;35.57
69770;SHT30;57282;52.514;13.458;2022-09-03T15:04:22;22.03;35.42
69770;SHT30;57282;52.514;13.458;2022-09-03T15:07:23;21.98;36.40
69770;SHT30;57282;52.514;13.458;2022-09-03T15:10:07;21.98;36.12
69770;SHT30;57282;52.514;13.458;2022-09-03T15:12:45;21.97;35.78
69770;SHT30;57282;52.514;13.458;2022-09-03T15:15:19;21.94;35.57
69770;SHT30;57282;52.514;13.458;2022-09-03T15:17:59;21.96;35.78
69770;SHT30;57282;52.514;13.458;2022-09-03T15:20:47;21.97;36.30
69770;SHT30;57282;52.514;13.458;2022-09-03T15:23:25;21.97;36.14
69770;SHT30;57282;52.514;13.458;2022-09-03T15:26:27;21.94;36.56
69770;SHT30;57282;52.514;13.458;2022-09-03T15:29:22;21.97;36.18
69770;SHT30;57282;52.514;13.458;2022-09-03T15:32:11;21.97;35.86
69770;SHT30;57282;52.514;13.458;2022-09-03T15:35:06;22.00;34.88
69770;SHT30;57282;52.514;13.458;2022-09-03T15:37:53;21.98;35.22
69770;SHT30;57282;52.514;13.458;2022-09-03T15:40:27;21.96;35.19
69770;SHT30;57282;52.514;13.458;2022-09-03T15:43:02;21.92;35.49
69770;SHT30;57282;52.514;13.458;2022-09-03T15:45:38;21.92;35.51
69770;SHT30;57282;52.514;13.458;2022-09-03T15:48:20;21.92;35.72
69770;SHT30;57282;52.514;13.458;2022-09-03T15:51:04;21.87;35.70
69770;SHT30;57282;52.514;13.458;2022-09-03T15:53:41;21.89;36.17
69770;SHT30;57282;52.514;13.458;2022-09-03T15:56:23;21.89;36.45
69770;SHT30;57282;52.514;13.458;2022-09-03T15:58:58;21.90;36.35
69770;SHT30;57282;52.514;13.458;2022-09-03T16:01:38;21.93;36.23
69770;SHT30;57282;52.514;13.458;2022-09-03T16:04:38;21.89;35.95
69770;SHT30;57282;52.514;13.458;2022-09-03T16:07:22;21.90;35.88
69770;SHT30;57282;52.514;13.458;2022-09-03T16:10:02;21.87;35.84